Terminal Aerodrome Forecast
Issued by NWS Chicago, IL

Home | Current Version | Previous Version | Graphics & Text | Print | Product List | Glossary On
Versions: 1 2 3 4 5 6 7 8 9 10 11 12 13 14 15 16 17 18 19 20 21 22 23 24 25 26 27 28
895
FTUS43 KLOT 252114 AAA
TAFRFD
TAF AMD
KRFD 252114Z 2521/2618 16015G25KT P6SM FEW060 OVC250
     FM260100 15010KT P6SM SCT050
     FM261100 17012KT P6SM VCSH SCT020 BKN050
     FM261400 18015G22KT P6SM VCSH SCT015 BKN040 PROB30 2614/2618
      4SM -TSRA BKN035CB=

USA.gov is the U.S. government's official web portal to all federal, state and local government web resources and services.